Terminal Aerodrome Forecast
Issued by NWS Los Angeles, CA

Home | Current Version | Previous Version | Text Only | Print | Product List | Glossary On
Versions: 1 2 3 4 5 6 7 8 9 10 11 12 13 14 15 16 17 18 19 20 21 22 23 24 25
000
FTUS46 KLOX 231737
TAFSMX
TAF
KSMX 231737Z 2318/2418 31010KT P6SM SKC
     FM232000 30014G20KT P6SM SKC
     FM240200 31010KT P6SM SKC
     FM240600 VRB03KT P6SM OVC006
     FM240900 VRB03KT 1/2SM FG VV001
     FM241500 13005KT 1SM BR BKN002=

USA.gov is the U.S. government's official web portal to all federal, state and local government web resources and services.